Shelbina, Missouri
Current Conditions -  °F | °C
As of 2:15 PM on Sunday 25 Jan 2015 (Local Time) from KHAE Reporting Station
Light Snow Light Snow  
Wind Chill: 25°   Ceiling: 600
Heat Index: 34°   Visibility: 4mi
Dew Point: 32°   Wind: 13mph
Humidity: 93%   Direction: 360°N
Pressure: 29.76"   Gusts: 17mph
Location:  39.69°N, 92.04°W
Report Text: KHAE 252015Z AUTO 36011G15KT 333V033 4SM -SN OVC006 01/00 A2976 RMK AO2 P0001
Loading
Personal Weather Stations






























Interactive Weather Map New forecast layout! Learn more

10-Day Weather Forecast

Advertisements
Track Severe Weather on mobile